Time;durP1;ratioP1;P1;durP2;ratioP2;P2;SDS_P1;SDS_P2;PMS_P1;PMS_P2;Temp;Humidity;BMP_temperature;BMP_pressure;BME280_temperature;BME280_humidity;BME280_pressure;Samples;Min_cycle;Max_cycle;Signal;HPM_P1;HPM_P2
2021/12/17 00:05:11;;;;;;;56.08;21.48;;;9.00;99.90;;;;;;5065555;28;20086;-91
2021/12/17 00:07:37;;;;;;;50.83;21.13;;;8.90;99.90;;;;;;5040591;28;20049;-90
2021/12/17 00:10:10;;;;;;;53.13;21.02;;;8.90;99.90;;;;;;5053158;28;20405;-91
2021/12/17 00:12:36;;;;;;;52.80;21.35;;;8.90;99.90;;;;;;5047270;28;20037;-91
2021/12/17 00:15:03;;;;;;;58.13;21.98;;;8.80;99.90;;;;;;5035467;28;20744;-90
2021/12/17 00:17:34;;;;;;;50.95;21.08;;;8.80;99.90;;;;;;5043547;28;20046;-90
2021/12/17 00:52:40;;;;;;;41.10;19.17;;;8.80;99.90;;;;;;5052958;28;20053;-89
2021/12/17 00:55:08;;;;;;;55.67;20.20;;;8.80;99.90;;;;;;5068846;28;20058;-91
2021/12/17 00:57:39;;;;;;;56.80;21.25;;;8.80;99.90;;;;;;5045320;28;20541;-91
2021/12/17 01:00:09;;;;;;;48.40;19.67;;;8.80;99.90;;;;;;5052255;28;20036;-90
2021/12/17 01:02:37;;;;;;;60.58;20.90;;;8.80;99.90;;;;;;5045268;28;20041;-90
2021/12/17 01:05:10;;;;;;;53.47;20.13;;;8.80;99.90;;;;;;5039423;28;20037;-91
2021/12/17 01:07:40;;;;;;;51.15;20.40;;;8.80;99.90;;;;;;5044040;28;20037;-91
2021/12/17 01:10:12;;;;;;;51.78;20.40;;;8.80;99.90;;;;;;5051549;28;20436;-91
2021/12/17 01:12:38;;;;;;;62.10;22.63;;;8.80;99.90;;;;;;5039960;28;20105;-90
2021/12/17 01:15:08;;;;;;;60.97;21.27;;;8.80;99.90;;;;;;5053895;28;20514;-91
2021/12/17 01:17:38;;;;;;;60.80;21.45;;;8.80;99.90;;;;;;5064246;28;20119;-90
2021/12/17 01:23:08;;;;;;;68.30;22.73;;;8.80;99.90;;;;;;5055653;28;20508;-90
2021/12/17 01:36:33;;;;;;;61.58;21.88;;;8.70;99.90;;;;;;5067884;28;20529;-91
2021/12/17 01:44:28;;;;;;;70.70;23.48;;;8.80;99.90;;;;;;5046497;28;20080;-91
2021/12/17 01:46:54;;;;;;;74.78;24.25;;;8.80;99.90;;;;;;5044922;28;20049;-90
2021/12/17 02:00:19;;;;;;;49.42;21.25;;;8.80;99.90;;;;;;5056230;28;20045;-91
2021/12/17 02:02:51;;;;;;;47.28;21.52;;;8.80;99.90;;;;;;5064379;28;20046;-91
2021/12/17 02:05:17;;;;;;;46.80;20.98;;;8.80;99.90;;;;;;5059241;28;20037;-90
2021/12/17 02:07:44;;;;;;;51.30;21.15;;;8.80;99.90;;;;;;5059371;28;20041;-91
2021/12/17 02:28:55;;;;;;;56.85;22.55;;;8.80;99.90;;;;;;5062160;28;20047;-89
2021/12/17 02:31:29;;;;;;;63.20;22.17;;;8.80;99.90;;;;;;5041225;28;20044;-90
2021/12/17 02:33:58;;;;;;;51.38;22.25;;;8.80;99.90;;;;;;5066129;28;20447;-90
2021/12/17 02:36:28;;;;;;;68.25;22.20;;;8.80;99.90;;;;;;5058042;28;20132;-90
2021/12/17 02:39:05;;;;;;;62.35;22.27;;;8.80;99.90;;;;;;5055887;28;20053;-89
2021/12/17 02:47:07;;;;;;;56.38;20.63;;;8.80;99.90;;;;;;5026282;28;20053;-89
2021/12/17 02:49:34;;;;;;;50.85;21.02;;;8.80;99.90;;;;;;5054809;28;20240;-90
2021/12/17 02:52:03;;;;;;;55.35;20.67;;;8.90;99.90;;;;;;5052543;28;20055;-90
2021/12/17 02:54:29;;;;;;;77.68;22.85;;;8.90;99.90;;;;;;5050645;28;20124;-90
2021/12/17 02:56:55;;;;;;;57.20;21.25;;;8.80;99.90;;;;;;5031793;28;20127;-90
2021/12/17 02:59:23;;;;;;;66.57;21.13;;;8.90;99.90;;;;;;5033262;28;20116;-89
2021/12/17 03:01:50;;;;;;;61.53;21.05;;;8.90;99.90;;;;;;5062351;28;20412;-90
2021/12/17 03:04:19;;;;;;;66.93;22.10;;;8.90;99.90;;;;;;5037517;28;20040;-89
2021/12/17 03:06:46;;;;;;;43.15;19.73;;;8.90;99.90;;;;;;5051340;28;20037;-89
2021/12/17 03:09:12;;;;;;;49.55;21.05;;;8.90;99.90;;;;;;5036574;28;20102;-90
2021/12/17 03:11:38;;;;;;;43.33;19.33;;;8.80;99.90;;;;;;5045829;28;20049;-89
2021/12/17 04:22:55;;;;;;;44.53;19.00;;;8.50;99.90;;;;;;5111704;27;20254;-91
2021/12/17 04:25:20;;;;;;;39.90;19.42;;;8.70;99.90;;;;;;5090035;28;20048;-91
2021/12/17 04:27:46;;;;;;;55.13;19.42;;;8.60;99.90;;;;;;5090127;28;20040;-90
2021/12/17 04:30:12;;;;;;;50.08;18.42;;;8.70;99.90;;;;;;5074071;28;20069;-91
2021/12/17 04:32:37;;;;;;;48.88;18.60;;;8.70;99.90;;;;;;5085837;28;20078;-91
2021/12/17 04:35:03;;;;;;;37.28;17.25;;;8.70;99.90;;;;;;5088431;28;20445;-91
2021/12/17 04:37:29;;;;;;;39.92;17.17;;;8.70;99.90;;;;;;5090199;28;20145;-91
2021/12/17 04:39:55;;;;;;;39.67;17.45;;;8.80;99.90;;;;;;5090062;28;20047;-90
2021/12/17 04:43:14;;;;;;;38.42;16.60;;;8.70;99.90;;;;;;5074671;28;20484;-90
2021/12/17 04:45:14;;;;;;;60.53;19.63;;;8.80;99.90;;;;;;5091756;28;20062;-90
2021/12/17 04:58:38;;;;;;;33.83;15.82;;;8.70;99.90;;;;;;5106196;28;20040;-92
2021/12/17 05:01:09;;;;;;;46.85;18.50;;;8.70;99.90;;;;;;5073533;28;20047;-93
2021/12/17 05:03:35;;;;;;;34.85;16.67;;;8.80;99.90;;;;;;5088989;28;20043;-92
2021/12/17 05:06:01;;;;;;;28.63;14.63;;;8.80;99.90;;;;;;5089860;28;20047;-92
2021/12/17 05:08:28;;;;;;;34.10;14.48;;;8.80;99.90;;;;;;5086913;28;20044;-93
2021/12/17 05:11:21;;;;;;;29.42;14.35;;;8.70;99.90;;;;;;5082619;28;20384;-93
2021/12/17 05:19:28;;;;;;;42.78;16.33;;;8.70;99.90;;;;;;5103200;28;20040;-92
2021/12/17 05:21:53;;;;;;;36.28;15.35;;;8.70;99.90;;;;;;5069540;28;20056;-92
2021/12/17 05:24:19;;;;;;;34.55;15.30;;;8.70;99.90;;;;;;5074237;28;20413;-93
2021/12/17 05:26:44;;;;;;;31.27;15.23;;;8.70;99.90;;;;;;5069739;28;20040;-93
2021/12/17 05:29:10;;;;;;;103.47;22.95;;;8.70;99.90;;;;;;5057545;28;20040;-92
2021/12/17 05:31:36;;;;;;;31.92;14.45;;;8.70;99.90;;;;;;5087834;28;20403;-92
2021/12/17 05:34:01;;;;;;;38.75;17.20;;;8.70;99.90;;;;;;5074686;28;20536;-93
2021/12/17 05:36:27;;;;;;;39.92;16.08;;;8.70;99.90;;;;;;5072313;28;20058;-94
2021/12/17 05:38:53;;;;;;;33.22;14.75;;;8.70;99.90;;;;;;5091865;28;20047;-91
2021/12/17 05:41:18;;;;;;;43.00;16.65;;;8.70;99.90;;;;;;5073302;28;20124;-93
2021/12/17 05:43:54;;;;;;;83.57;20.33;;;8.80;99.90;;;;;;5092004;28;20484;-93
2021/12/17 05:46:24;;;;;;;53.78;20.58;;;8.70;99.90;;;;;;5089384;28;20127;-93
2021/12/17 05:48:49;;;;;;;54.08;20.67;;;8.70;99.90;;;;;;5092344;28;20090;-93
2021/12/17 05:51:15;;;;;;;42.08;19.30;;;8.70;99.90;;;;;;5065571;28;20513;-93
2021/12/17 05:53:41;;;;;;;41.17;19.20;;;8.70;99.90;;;;;;5063272;28;20332;-93
2021/12/17 05:56:07;;;;;;;61.05;25.58;;;8.70;99.90;;;;;;5065452;28;20040;-93
2021/12/17 05:58:32;;;;;;;49.03;21.02;;;8.80;99.90;;;;;;5073081;28;20036;-92
2021/12/17 06:00:58;;;;;;;67.45;20.58;;;8.80;99.90;;;;;;5091191;28;20042;-93
2021/12/17 06:03:24;;;;;;;57.70;20.08;;;8.80;99.90;;;;;;5074012;28;20050;-93
2021/12/17 06:05:49;;;;;;;72.72;21.00;;;8.80;99.90;;;;;;5091082;28;20475;-93
2021/12/17 06:08:15;;;;;;;60.53;20.67;;;8.80;99.90;;;;;;5075595;28;20047;-94
2021/12/17 06:10:41;;;;;;;50.08;19.70;;;8.80;99.90;;;;;;5067920;28;20202;-94
2021/12/17 06:13:07;;;;;;;33.97;16.88;;;8.70;99.90;;;;;;5073100;28;20423;-94
2021/12/17 06:15:33;;;;;;;61.33;19.90;;;8.70;99.90;;;;;;5072541;28;20454;-94
2021/12/17 06:17:58;;;;;;;51.45;19.60;;;8.70;99.90;;;;;;5087322;28;20043;-93
2021/12/17 06:20:24;;;;;;;52.83;20.30;;;8.70;99.90;;;;;;5074032;28;20476;-94
2021/12/17 06:22:51;;;;;;;50.90;19.63;;;8.70;99.90;;;;;;5081714;28;20061;-93
2021/12/17 06:25:17;;;;;;;75.97;22.65;;;8.70;99.90;;;;;;5076182;28;20040;-94
2021/12/17 06:27:43;;;;;;;69.60;21.05;;;8.70;99.90;;;;;;5078915;28;20045;-93
2021/12/17 06:30:12;;;;;;;75.45;23.40;;;8.60;99.90;;;;;;5072684;28;20047;-94
2021/12/17 06:32:38;;;;;;;75.28;23.80;;;8.60;99.90;;;;;;5076793;28;20303;-94
2021/12/17 06:35:05;;;;;;;81.28;23.33;;;8.60;99.90;;;;;;5093618;28;20063;-94
2021/12/17 06:37:31;;;;;;;84.22;24.90;;;8.60;99.90;;;;;;5077018;28;20066;-95
2021/12/17 06:39:58;;;;;;;103.85;27.55;;;8.60;99.90;;;;;;5079369;28;20442;-95
2021/12/17 06:42:26;;;;;;;52.35;21.63;;;8.60;99.90;;;;;;5080524;28;20040;-94
2021/12/17 06:44:54;;;;;;;92.13;25.33;;;8.50;99.90;;;;;;5087973;28;20040;-94
2021/12/17 06:47:29;;;;;;;56.58;21.08;;;8.50;99.90;;;;;;5083714;28;20040;-94
2021/12/17 07:11:01;;;;;;;157.43;28.55;;;8.50;99.90;;;;;;5103544;28;20055;-96
2021/12/17 07:21:28;;;;;;;152.80;28.42;;;8.40;99.90;;;;;;5099336;28;20059;-96
2021/12/17 07:31:00;;;;;;;53.00;20.83;;;8.40;99.90;;;;;;5083348;28;19924;-95
2021/12/17 09:52:53;;;;;;;24.58;15.75;;;9.20;99.90;;;;;;5015173;28;20486;-93
2021/12/17 09:55:19;;;;;;;22.33;13.75;;;9.20;99.90;;;;;;5007813;28;20092;-93
2021/12/17 09:57:45;;;;;;;24.00;14.23;;;9.20;99.90;;;;;;4998997;28;20058;-93
2021/12/17 10:00:38;;;;;;;27.02;15.35;;;9.20;99.90;;;;;;5009077;28;20117;-92
2021/12/17 10:03:08;;;;;;;26.65;15.63;;;9.20;99.90;;;;;;4987766;28;20068;-93
2021/12/17 10:05:36;;;;;;;26.40;17.05;;;9.30;99.90;;;;;;4979577;28;20474;-93
2021/12/17 10:08:11;;;;;;;26.58;17.63;;;9.30;99.90;;;;;;5001455;28;20065;-96
2021/12/17 10:10:40;;;;;;;27.75;16.73;;;9.30;99.90;;;;;;5021214;28;20061;-96
2021/12/17 10:13:21;;;;;;;25.58;17.20;;;9.30;99.90;;;;;;4998279;28;20046;-96
2021/12/17 10:16:07;;;;;;;26.10;17.92;;;9.30;99.90;;;;;;5001384;28;20040;-96
2021/12/17 10:18:46;;;;;;;25.50;18.95;;;9.40;99.90;;;;;;5001378;28;20046;-96
2021/12/17 10:21:26;;;;;;;29.02;17.75;;;9.40;99.90;;;;;;5012735;28;20050;-92
2021/12/17 10:23:54;;;;;;;46.38;41.42;;;9.40;99.90;;;;;;5005333;28;20129;-96
2021/12/17 10:26:24;;;;;;;25.35;16.25;;;9.40;99.90;;;;;;4991512;28;20053;-96
2021/12/17 10:28:53;;;;;;;24.58;15.88;;;9.40;99.90;;;;;;4993463;28;20050;-95
2021/12/17 10:31:26;;;;;;;24.55;15.40;;;9.50;99.90;;;;;;4986410;28;20546;-92
2021/12/17 10:33:54;;;;;;;24.98;16.33;;;9.50;99.90;;;;;;4991887;28;20087;-93
2021/12/17 10:36:34;;;;;;;23.60;16.42;;;9.50;99.90;;;;;;4982749;28;20033;-92
2021/12/17 10:39:11;;;;;;;21.75;15.15;;;9.60;99.90;;;;;;4995623;28;20069;-93
2021/12/17 10:41:55;;;;;;;23.83;15.65;;;9.50;99.90;;;;;;4980576;28;20402;-93
2021/12/17 10:44:28;;;;;;;21.83;14.15;;;9.60;99.90;;;;;;4978149;28;20388;-92
2021/12/17 10:49:34;;;;;;;22.85;15.05;;;9.50;99.90;;;;;;5006279;28;20046;-93
2021/12/17 10:52:06;;;;;;;20.30;14.05;;;9.60;99.90;;;;;;4993792;28;20085;-92
2021/12/17 10:54:33;;;;;;;21.52;14.38;;;9.60;99.90;;;;;;4991519;28;20046;-92
2021/12/17 10:56:59;;;;;;;23.20;14.38;;;9.60;99.90;;;;;;5011419;28;20117;-93
2021/12/17 10:59:34;;;;;;;22.63;14.68;;;9.60;99.90;;;;;;4992650;28;20057;-92
2021/12/17 11:02:10;;;;;;;22.52;14.02;;;9.60;99.90;;;;;;4995420;28;20042;-92
2021/12/17 11:04:38;;;;;;;21.05;13.82;;;9.70;99.90;;;;;;4993803;28;20398;-92
2021/12/17 11:07:06;;;;;;;22.90;14.20;;;9.60;99.90;;;;;;4995158;28;20395;-92
2021/12/17 11:09:53;;;;;;;22.42;14.52;;;9.60;99.90;;;;;;4990164;28;20068;-93
2021/12/17 11:12:29;;;;;;;20.17;13.43;;;9.70;99.90;;;;;;4990570;28;20053;-96
2021/12/17 11:15:19;;;;;;;23.10;14.48;;;9.70;99.90;;;;;;5009448;28;20053;-92
2021/12/17 11:17:51;;;;;;;22.60;15.00;;;9.80;99.90;;;;;;4994584;28;20085;-93
2021/12/17 11:20:26;;;;;;;24.23;15.35;;;9.80;99.90;;;;;;5008329;28;20057;-93
2021/12/17 11:23:04;;;;;;;22.90;14.40;;;9.80;99.90;;;;;;4985679;28;20045;-94
2021/12/17 11:25:30;;;;;;;24.00;15.68;;;9.80;99.90;;;;;;4988363;28;20050;-94
2021/12/17 11:27:57;;;;;;;30.25;24.17;;;9.90;99.90;;;;;;4983870;28;20124;-95
2021/12/17 11:30:30;;;;;;;20.20;14.07;;;9.90;99.90;;;;;;4983003;28;20038;-94
2021/12/17 11:33:01;;;;;;;21.77;14.05;;;9.90;99.90;;;;;;4999944;28;20046;-95
2021/12/17 11:35:28;;;;;;;22.25;14.13;;;10.00;99.90;;;;;;4986212;28;20053;-93
2021/12/17 11:38:05;;;;;;;94.32;72.15;;;10.00;99.90;;;;;;4978696;28;20041;-95
2021/12/17 11:40:41;;;;;;;21.55;13.52;;;10.00;99.90;;;;;;4983041;28;20057;-94
2021/12/17 11:43:24;;;;;;;22.20;13.70;;;10.00;99.90;;;;;;4994645;28;20393;-94
2021/12/17 11:46:10;;;;;;;25.67;18.70;;;10.10;99.90;;;;;;4989714;28;20046;-94
2021/12/17 11:48:36;;;;;;;21.42;16.17;;;10.10;99.90;;;;;;4987278;28;20053;-95
2021/12/17 11:51:13;;;;;;;21.60;13.77;;;10.10;99.90;;;;;;4994473;28;20053;-95
2021/12/17 11:54:10;;;;;;;19.70;13.13;;;10.10;99.90;;;;;;4979122;28;20448;-93
2021/12/17 11:56:39;;;;;;;21.88;14.40;;;10.10;99.90;;;;;;4957991;28;20082;-94
2021/12/17 11:59:06;;;;;;;19.67;13.25;;;10.10;99.90;;;;;;4969794;28;20129;-92
2021/12/17 12:02:12;;;;;;;19.92;13.15;;;10.10;99.90;;;;;;4973733;28;20478;-93
2021/12/17 12:04:53;;;;;;;20.20;14.48;;;10.20;99.90;;;;;;4980437;28;20057;-92
2021/12/17 12:07:33;;;;;;;20.85;15.23;;;10.10;99.90;;;;;;4980265;28;20458;-93
2021/12/17 12:10:08;;;;;;;34.80;31.33;;;10.10;99.90;;;;;;4979250;28;20090;-94
2021/12/17 12:12:45;;;;;;;27.10;24.25;;;10.10;99.90;;;;;;4971192;28;20084;-93
2021/12/17 12:15:31;;;;;;;33.03;28.92;;;10.10;99.90;;;;;;4978668;28;20081;-93
2021/12/17 12:17:57;;;;;;;31.30;27.85;;;10.10;99.90;;;;;;4982134;28;20056;-94
2021/12/17 12:20:44;;;;;;;55.47;49.90;;;10.10;99.90;;;;;;4988794;28;20136;-96
2021/12/17 12:23:19;;;;;;;22.25;14.63;;;10.20;99.90;;;;;;4991946;28;20060;-95
2021/12/17 12:25:47;;;;;;;20.17;14.10;;;10.20;99.90;;;;;;4994066;28;20049;-93
2021/12/17 12:28:14;;;;;;;21.70;14.10;;;10.20;99.90;;;;;;4981299;28;20053;-93
2021/12/17 12:30:46;;;;;;;20.02;13.15;;;10.20;99.90;;;;;;4993638;28;20038;-94
2021/12/17 12:33:14;;;;;;;19.63;12.60;;;10.20;99.90;;;;;;4965279;28;20104;-94
2021/12/17 12:35:55;;;;;;;25.23;18.23;;;10.20;99.90;;;;;;4971080;28;20475;-95
2021/12/17 12:38:26;;;;;;;21.13;13.27;;;10.20;99.90;;;;;;4992372;28;20053;-93
2021/12/17 12:40:55;;;;;;;29.63;23.83;;;10.20;99.90;;;;;;4985402;28;20053;-93
2021/12/17 12:43:33;;;;;;;19.30;13.23;;;10.20;99.90;;;;;;5013134;28;20061;-96
2021/12/17 12:46:09;;;;;;;19.40;13.85;;;10.20;99.90;;;;;;5011224;28;20044;-95
2021/12/17 12:48:39;;;;;;;18.35;12.13;;;10.30;99.90;;;;;;4991645;28;20103;-96
2021/12/17 12:51:19;;;;;;;17.80;11.57;;;10.20;99.90;;;;;;5003379;28;20057;-96
2021/12/17 12:54:08;;;;;;;18.00;12.13;;;10.20;99.90;;;;;;4984206;28;20311;-94
2021/12/17 12:56:38;;;;;;;18.25;12.57;;;10.30;99.90;;;;;;4994982;28;20041;-95
2021/12/17 12:59:06;;;;;;;16.92;11.38;;;10.20;99.90;;;;;;5108543;22;20045;-96
2021/12/17 13:01:38;;;;;;;16.05;11.40;;;10.20;99.90;;;;;;5005052;28;20029;-95
2021/12/17 13:04:07;;;;;;;19.95;13.70;;;10.20;99.90;;;;;;4990611;28;20049;-95
2021/12/17 13:06:33;;;;;;;18.05;11.88;;;10.20;99.90;;;;;;5003646;28;20033;-95
2021/12/17 13:09:00;;;;;;;28.13;25.10;;;10.20;99.90;;;;;;5014081;28;20053;-96
2021/12/17 13:11:26;;;;;;;16.70;11.75;;;10.20;99.90;;;;;;5002072;28;20109;-95
2021/12/17 13:13:54;;;;;;;17.30;11.80;;;10.20;99.90;;;;;;4984970;28;20064;-95
2021/12/17 13:21:48;;;;;;;12.93;8.80;;;10.20;99.90;;;;;;5001045;28;20057;-94
2021/12/17 13:24:23;;;;;;;12.88;8.35;;;10.20;99.90;;;;;;4987183;28;20123;-96
2021/12/17 13:27:09;;;;;;;12.68;8.00;;;10.30;99.90;;;;;;4992211;28;20052;-94
2021/12/17 13:29:40;;;;;;;11.73;7.47;;;10.30;99.90;;;;;;4986309;28;20057;-94
2021/12/17 13:32:09;;;;;;;13.15;6.88;;;10.30;99.90;;;;;;4984916;28;20077;-94
2021/12/17 13:34:41;;;;;;;9.02;5.68;;;10.30;99.90;;;;;;4990147;28;20401;-93
2021/12/17 13:37:16;;;;;;;;;;;10.30;99.90;;;;;;4998525;28;20065;-92
2021/12/17 13:39:56;;;;;;;6.80;3.33;;;10.20;99.90;;;;;;5000892;28;20012;-94
2021/12/17 13:42:23;;;;;;;21.98;19.77;;;10.20;99.90;;;;;;5000018;28;20042;-92
2021/12/17 13:45:13;;;;;;;8.82;5.72;;;10.10;99.90;;;;;;4998999;28;20069;-95
2021/12/17 13:47:46;;;;;;;11.10;7.47;;;10.10;99.90;;;;;;4998519;28;20111;-91
2021/12/17 13:50:13;;;;;;;56.03;51.42;;;10.20;99.90;;;;;;5015343;28;20037;-94
2021/12/17 13:52:49;;;;;;;29.75;27.08;;;10.10;99.90;;;;;;4998477;28;20091;-94
2021/12/17 13:55:18;;;;;;;24.25;21.75;;;10.20;99.90;;;;;;4993841;28;20119;-94
2021/12/17 13:57:45;;;;;;;8.20;4.38;;;10.10;99.90;;;;;;4987596;28;20049;-94
2021/12/17 14:00:21;;;;;;;8.93;3.97;;;10.10;99.90;;;;;;4992311;28;20133;-94
2021/12/17 14:02:50;;;;;;;11.43;7.20;;;10.10;99.90;;;;;;4982261;28;20097;-95
2021/12/17 14:05:26;;;;;;;8.85;5.22;;;10.10;99.90;;;;;;5001053;28;20045;-94
2021/12/17 14:07:55;;;;;;;8.50;3.80;;;10.10;99.90;;;;;;4992488;28;20067;-94
2021/12/17 14:10:28;;;;;;;9.50;4.95;;;10.10;99.90;;;;;;4998168;28;20094;-93
2021/12/17 14:12:53;;;;;;;15.20;13.68;;;10.10;99.90;;;;;;4985442;28;20073;-93
2021/12/17 14:15:26;;;;;;;16.10;14.10;;;10.10;99.90;;;;;;4990637;28;20136;-94
2021/12/17 14:18:04;;;;;;;7.55;4.47;;;10.10;99.90;;;;;;4991412;28;20394;-94
2021/12/17 14:20:42;;;;;;;9.57;8.52;;;10.10;99.90;;;;;;5008242;28;20042;-93
2021/12/17 14:23:30;;;;;;;6.68;2.97;;;10.00;99.90;;;;;;5015457;28;20042;-94
2021/12/17 14:26:05;;;;;;;5.60;2.97;;;10.00;99.90;;;;;;4989652;28;20056;-93
2021/12/17 14:28:33;;;;;;;7.13;4.35;;;10.00;99.90;;;;;;4979779;28;20394;-94
2021/12/17 14:31:09;;;;;;;7.88;6.38;;;10.00;99.90;;;;;;4993178;28;20041;-93
2021/12/17 14:33:42;;;;;;;7.00;4.60;;;10.00;99.90;;;;;;4985775;28;20131;-94
2021/12/17 14:36:09;;;;;;;8.23;4.05;;;9.90;99.90;;;;;;4995691;28;20052;-93
2021/12/17 14:38:48;;;;;;;7.55;4.30;;;9.90;99.90;;;;;;4984035;28;20073;-93
2021/12/17 14:41:23;;;;;;;9.68;7.18;;;9.90;99.90;;;;;;4990995;28;20048;-92
2021/12/17 14:43:56;;;;;;;18.80;17.17;;;9.90;99.90;;;;;;4997108;28;20034;-93
2021/12/17 14:46:39;;;;;;;9.15;5.72;;;9.90;99.90;;;;;;4996928;28;20052;-93
2021/12/17 15:02:49;;;;;;;9.60;5.85;;;9.80;99.90;;;;;;5008764;28;20050;-93
2021/12/17 15:05:24;;;;;;;9.57;5.07;;;9.80;99.90;;;;;;4997166;28;20104;-93
2021/12/17 15:07:50;;;;;;;10.68;7.55;;;9.80;99.90;;;;;;5003805;28;20070;-94
2021/12/17 15:10:18;;;;;;;14.48;10.55;;;9.80;99.90;;;;;;4998184;28;20065;-93
2021/12/17 15:12:45;;;;;;;17.17;11.88;;;9.80;99.90;;;;;;4996918;28;20235;-95
2021/12/17 15:15:21;;;;;;;187.80;118.60;;;9.80;99.90;;;;;;4985239;28;20072;-93
2021/12/17 15:17:50;;;;;;;19.60;15.52;;;9.80;99.90;;;;;;4988674;28;20127;-92
2021/12/17 15:20:18;;;;;;;11.35;7.75;;;9.80;99.90;;;;;;4988144;28;20046;-94
2021/12/17 15:22:44;;;;;;;13.65;11.13;;;9.80;99.90;;;;;;4983243;28;20168;-94
2021/12/17 15:25:12;;;;;;;12.45;8.63;;;9.80;99.90;;;;;;4989717;28;20507;-94
2021/12/17 15:27:39;;;;;;;11.60;7.82;;;9.70;99.90;;;;;;4985549;28;20053;-91
2021/12/17 15:30:20;;;;;;;14.20;11.77;;;9.70;99.90;;;;;;4999643;28;20056;-94
2021/12/17 15:32:45;;;;;;;26.08;23.58;;;9.80;99.90;;;;;;4986768;28;20069;-92
2021/12/17 15:35:12;;;;;;;15.48;13.73;;;9.70;99.90;;;;;;4990179;28;20077;-93
2021/12/17 15:37:41;;;;;;;12.85;9.93;;;9.70;99.90;;;;;;4994736;28;20053;-94
2021/12/17 15:40:08;;;;;;;12.43;9.43;;;9.70;99.90;;;;;;5001259;28;20053;-94
2021/12/17 15:42:33;;;;;;;13.65;11.23;;;9.70;99.90;;;;;;4998915;28;20235;-91
2021/12/17 15:45:00;;;;;;;17.80;16.17;;;9.70;99.90;;;;;;5009563;28;20076;-93
2021/12/17 15:47:26;;;;;;;11.88;8.35;;;9.70;99.90;;;;;;5020866;28;20057;-91
2021/12/17 15:49:52;;;;;;;11.20;8.55;;;9.60;99.90;;;;;;4988004;28;20042;-93
2021/12/17 15:52:17;;;;;;;12.13;8.05;;;9.70;99.90;;;;;;4995367;28;20137;-93
2021/12/17 15:54:43;;;;;;;17.48;15.88;;;9.60;99.90;;;;;;4991896;28;20080;-92
2021/12/17 15:57:10;;;;;;;13.07;8.60;;;9.70;99.90;;;;;;5014126;28;20107;-93
2021/12/17 15:59:36;;;;;;;13.20;10.07;;;9.70;99.90;;;;;;4996924;28;20049;-93
2021/12/17 16:02:04;;;;;;;14.10;12.00;;;9.70;99.90;;;;;;4989717;28;20104;-93
2021/12/17 16:04:35;;;;;;;17.23;13.80;;;9.70;99.90;;;;;;5007968;28;20512;-94
2021/12/17 16:07:02;;;;;;;15.23;11.45;;;9.60;99.90;;;;;;4991073;28;20064;-93
2021/12/17 16:10:05;;;;;;;14.20;10.23;;;9.70;99.90;;;;;;5007959;28;20054;-94
2021/12/17 16:23:09;;;;;;;14.88;9.82;;;9.60;99.90;;;;;;5012571;28;20053;-94
2021/12/17 16:25:34;;;;;;;14.88;9.70;;;9.60;99.90;;;;;;4986362;28;20046;-94
2021/12/17 16:28:01;;;;;;;14.50;10.07;;;9.70;99.90;;;;;;5001258;28;20038;-93
2021/12/17 16:30:26;;;;;;;14.40;8.98;;;9.70;99.90;;;;;;4996054;28;20436;-91
2021/12/17 16:32:52;;;;;;;13.18;9.20;;;9.60;99.90;;;;;;5015922;28;20037;-91
2021/12/17 16:35:17;;;;;;;14.18;8.07;;;9.60;99.90;;;;;;5002736;28;20414;-91
2021/12/17 16:37:43;;;;;;;14.07;9.00;;;9.60;99.90;;;;;;5000917;28;20052;-93
2021/12/17 16:40:10;;;;;;;16.55;12.60;;;9.70;99.90;;;;;;4986994;28;20065;-93
2021/12/17 16:42:36;;;;;;;16.45;12.98;;;9.70;99.90;;;;;;4992441;28;20080;-93
2021/12/17 16:47:41;;;;;;;13.90;9.85;;;9.60;99.90;;;;;;5004718;28;20065;-94
2021/12/17 16:50:07;;;;;;;15.57;10.80;;;9.70;99.90;;;;;;4990534;28;20048;-93
2021/12/17 16:52:32;;;;;;;94.00;86.95;;;9.60;99.90;;;;;;4989984;28;20122;-92
2021/12/17 16:55:00;;;;;;;14.27;11.05;;;9.70;99.90;;;;;;5010620;28;20092;-91
2021/12/17 16:57:27;;;;;;;15.38;11.32;;;9.70;99.90;;;;;;4975746;28;20042;-91
2021/12/17 16:59:54;;;;;;;13.93;10.27;;;9.70;99.90;;;;;;5004210;28;20100;-91
2021/12/17 17:02:20;;;;;;;19.67;13.82;;;9.70;99.90;;;;;;4984687;28;20141;-90
2021/12/17 17:04:47;;;;;;;16.58;11.60;;;9.60;99.90;;;;;;5000035;28;20038;-91
2021/12/17 17:07:12;;;;;;;22.60;17.83;;;9.70;99.90;;;;;;4991124;28;20532;-91
2021/12/17 17:09:38;;;;;;;17.23;13.70;;;9.60;99.90;;;;;;4998156;28;20314;-92
2021/12/17 17:12:08;;;;;;;15.48;11.95;;;9.70;99.90;;;;;;4982572;28;20038;-90
2021/12/17 17:14:34;;;;;;;27.45;21.65;;;9.70;99.90;;;;;;4975183;28;20049;-90
2021/12/17 17:17:00;;;;;;;23.08;20.02;;;9.70;99.90;;;;;;4990505;28;20038;-91
2021/12/17 17:19:26;;;;;;;63.58;56.60;;;9.70;99.90;;;;;;5015849;28;20482;-91
2021/12/17 17:21:54;;;;;;;43.28;38.20;;;9.70;99.90;;;;;;4991963;28;20136;-91
2021/12/17 17:24:20;;;;;;;21.98;18.40;;;9.70;99.90;;;;;;5014606;28;20045;-92
2021/12/17 17:26:46;;;;;;;17.95;14.07;;;9.70;99.90;;;;;;5003772;28;20034;-92
2021/12/17 17:29:13;;;;;;;16.27;12.85;;;9.60;99.90;;;;;;4996636;28;20041;-92
2021/12/17 17:31:39;;;;;;;16.58;12.23;;;9.70;99.90;;;;;;5000371;28;20436;-91
2021/12/17 17:34:07;;;;;;;15.57;11.50;;;9.60;99.90;;;;;;4994002;28;20058;-91
2021/12/17 17:36:33;;;;;;;15.07;11.43;;;9.70;99.90;;;;;;4999948;28;20108;-92
2021/12/17 17:39:00;;;;;;;17.10;13.43;;;9.60;99.90;;;;;;4998271;28;20045;-92
2021/12/17 17:41:27;;;;;;;18.38;14.63;;;9.60;99.90;;;;;;4995923;28;20046;-93
2021/12/17 17:43:54;;;;;;;19.73;15.57;;;9.60;99.90;;;;;;4988268;28;20075;-91
2021/12/17 17:46:20;;;;;;;26.13;23.33;;;9.60;99.90;;;;;;5003228;28;20405;-92
2021/12/17 17:48:46;;;;;;;19.83;16.88;;;9.60;99.90;;;;;;5023529;28;20052;-92
2021/12/17 17:51:12;;;;;;;16.65;12.70;;;9.60;99.90;;;;;;5000119;28;20041;-92
2021/12/17 17:53:39;;;;;;;18.90;14.80;;;9.60;99.90;;;;;;5000958;28;20744;-94
2021/12/17 17:56:05;;;;;;;18.02;14.95;;;9.60;99.90;;;;;;4984726;28;20430;-92
2021/12/17 17:58:32;;;;;;;17.08;15.25;;;9.60;99.90;;;;;;4986275;28;20073;-93
2021/12/17 18:00:58;;;;;;;16.25;13.65;;;9.60;99.90;;;;;;4993271;28;20144;-92
2021/12/17 18:03:24;;;;;;;17.55;15.65;;;9.60;99.90;;;;;;4999237;28;20092;-92
2021/12/17 18:05:50;;;;;;;13.50;9.52;;;9.60;99.90;;;;;;5001506;28;20041;-94
2021/12/17 18:08:16;;;;;;;14.68;10.45;;;9.60;99.90;;;;;;5003001;28;20081;-92
2021/12/17 18:10:43;;;;;;;12.20;8.55;;;9.60;99.90;;;;;;5021659;28;20053;-93
2021/12/17 18:13:10;;;;;;;14.07;9.10;;;9.60;99.90;;;;;;4999801;28;20564;-93
2021/12/17 18:15:37;;;;;;;23.48;21.30;;;9.50;99.90;;;;;;4994639;28;20546;-93
2021/12/17 18:18:03;;;;;;;15.52;10.93;;;9.60;99.90;;;;;;4992282;28;20103;-93
2021/12/17 18:20:29;;;;;;;14.48;10.02;;;9.50;99.90;;;;;;5010958;28;20063;-93
2021/12/17 18:22:56;;;;;;;17.92;12.65;;;9.50;99.90;;;;;;5010438;28;20046;-93
2021/12/17 18:25:23;;;;;;;22.33;19.33;;;9.50;99.90;;;;;;5018886;28;20072;-93
2021/12/17 18:27:49;;;;;;;16.75;11.85;;;9.50;99.90;;;;;;5001994;28;20030;-92
2021/12/17 18:30:17;;;;;;;16.98;12.15;;;9.50;99.90;;;;;;5002074;28;20200;-93
2021/12/17 18:32:46;;;;;;;17.38;12.77;;;9.50;99.90;;;;;;5005220;28;20049;-91
2021/12/17 18:35:13;;;;;;;17.75;13.73;;;9.50;99.90;;;;;;5002344;28;20072;-91
2021/12/17 18:37:39;;;;;;;18.00;15.65;;;9.50;99.90;;;;;;4997185;28;20724;-91
2021/12/17 18:40:13;;;;;;;16.40;13.30;;;9.50;99.90;;;;;;4993756;28;20049;-91
2021/12/17 18:45:23;;;;;;;18.23;14.88;;;9.50;99.90;;;;;;5009293;28;20053;-92
2021/12/17 18:47:49;;;;;;;16.25;11.80;;;9.40;99.90;;;;;;5010254;28;20406;-92
2021/12/17 18:50:15;;;;;;;20.60;18.45;;;9.40;99.90;;;;;;4979893;28;20092;-92
2021/12/17 18:52:40;;;;;;;17.02;12.70;;;9.40;99.90;;;;;;4976338;28;20392;-92
2021/12/17 18:55:06;;;;;;;15.15;10.45;;;9.40;99.90;;;;;;5010876;28;20449;-92
2021/12/17 18:57:32;;;;;;;14.27;10.20;;;9.40;99.90;;;;;;4980153;28;20120;-92
2021/12/17 18:59:58;;;;;;;16.50;11.07;;;9.40;99.90;;;;;;5008598;28;20561;-92
2021/12/17 19:02:25;;;;;;;17.40;10.77;;;9.30;99.90;;;;;;5011608;28;20140;-92
2021/12/17 19:04:50;;;;;;;16.65;10.65;;;9.30;99.90;;;;;;4996378;28;20041;-92
2021/12/17 19:07:16;;;;;;;15.30;10.85;;;9.30;99.90;;;;;;5012281;28;20048;-93
2021/12/17 19:09:42;;;;;;;18.35;12.52;;;9.30;99.90;;;;;;5008902;28;20531;-93
2021/12/17 19:12:08;;;;;;;15.93;10.98;;;9.30;99.90;;;;;;4994419;28;20045;-92
2021/12/17 19:14:36;;;;;;;15.85;11.23;;;9.30;99.90;;;;;;4985176;28;20053;-93
2021/12/17 19:17:01;;;;;;;17.30;11.88;;;9.30;99.90;;;;;;5010389;28;20172;-92
2021/12/17 19:19:34;;;;;;;17.92;12.25;;;9.30;99.90;;;;;;4993626;28;20081;-93
2021/12/17 19:24:26;;;;;;;18.13;11.73;;;9.30;99.90;;;;;;4994090;28;20132;-93